Chignik Lagoon, AK (99565)

8:33 PM AKDT on October 25, 2014 (GMT -0800)
Chignik | Change Station
CLOSE
Current Station
Airport
Location: Chignik,
Elevation: 16 ft
Nearby Weather Stations

Elev 16 ft 56.31 °N, 158.37 °W | Updated 17 minutes ago

Mostly Cloudy
Mostly Cloudy
43 °F
Feels Like 37 °F
N
10
Wind Variable Wind from West
Gusts 18 mph

Today
High -- | Low -- °F
--% Chance of Precip.
Yesterday
High -- | Low -- °F
Precip. -- in
9:26 AM 7:07 PM
Waxing Crescent, 6% visible
Pressure 29.91 in
Visibility 10.0 miles
Clouds Few 4100 ft
Mostly Cloudy 5000 ft
Windchill 37 °F
Dew Point 30 °F
Humidity 61%
Rainfall 0.00 in
Snow Depth Not available.
UV 0 out of 12
Pollen Not available.
Air Quality Not available.
Flu Activity Local Activity
METAR PAJC 260416Z AUTO 27009G16KT 10SM FEW041 BKN050 06/M01 A2991 RMK AO1

More Conditions Fewer Conditions

Pressure 29.91 in
Visibility 10.0 miles
Clouds Few 4100 ft
Mostly Cloudy 5000 ft
Windchill 37 °F
Dew Point 30 °F
Humidity 61%
Rainfall 0.00 in
Snow Depth Not available.
UV 0 out of 12
Pollen Not available.
Air Quality Not available.
Flu Activity Local Activity
METAR PAJC 260416Z AUTO 27009G16KT 10SM FEW041 BKN050 06/M01 A2991 RMK AO1

More Conditions Fewer Conditions

10-Day Weather Forecast

Almanac

Astronomy

Oct. 25, 2014 Rise Set
Actual Time 9:26 AM AKDT 7:07 PM AKDT
Civil Twilight 8:48 AM AKDT 7:46 PM AKDT
Nautical Twilight 8:04 AM AKDT 8:30 PM AKDT
Astronomical Twilight 7:21 AM AKDT 9:13 PM AKDT
Moon 11:33 AM AKDT (10/25) 8:21 PM AKDT (10/25)
Length of Visible Light 10h 58m
Length of Day
9h 40m
Tomorrow will be 4m 28s shorter.
Waxing Crescent, 6% of the Moon is Illuminated
Oct 26
Waxing Crescent
Oct 30
First Quarter
Nov 6
Full
Nov 14
Last Quarter
Nov 22
New

Yesterday's Extremes

State Highs State Lows

Community

WunderPhotos

Upload Photos

1,765,110 photos uploaded!

Nearby

Snow Depth

Station Depth Elevation
Port Graham 0 in 300 ft
Mcneil Canyon 1 in 1320 ft
Cooper Lake 1 in 1200 ft
Grouse Creek Divide 1 in 700 ft
Summit Creek 2 in 1400 ft

Earthquake Activity

City Distance Mag. Time & Date
No recent earthquake activity has been reported nearby.
Minimum magnitude displayed is 2.5.

Coastal Water Temperatures

Place Temperature
No Stations Reporting

Nearby Weather Stations